sensor_id;sensor_type;location;lat;lon;timestamp;P1;durP1;ratioP1;P2;durP2;ratioP2
25657;SDS011;13517;59.320;18.042;2022-08-01T00:02:05;3.10;;;1.90;;
25657;SDS011;13517;59.320;18.042;2022-08-01T00:04:30;4.63;;;1.98;;
25657;SDS011;13517;59.320;18.042;2022-08-01T00:06:55;3.30;;;1.55;;
25657;SDS011;13517;59.320;18.042;2022-08-01T00:09:21;6.18;;;1.92;;
25657;SDS011;13517;59.320;18.042;2022-08-01T00:11:46;3.47;;;2.15;;
25657;SDS011;13517;59.320;18.042;2022-08-01T00:14:11;8.52;;;2.40;;
25657;SDS011;13517;59.320;18.042;2022-08-01T00:16:37;2.40;;;2.00;;
25657;SDS011;13517;59.320;18.042;2022-08-01T00:19:02;2.88;;;1.85;;
25657;SDS011;13517;59.320;18.042;2022-08-01T00:21:28;4.30;;;2.20;;
25657;SDS011;13517;59.320;18.042;2022-08-01T00:23:53;3.97;;;2.15;;
25657;SDS011;13517;59.320;18.042;2022-08-01T00:26:19;5.65;;;2.10;;
25657;SDS011;13517;59.320;18.042;2022-08-01T00:28:44;2.30;;;2.10;;
25657;SDS011;13517;59.320;18.042;2022-08-01T00:31:09;1.85;;;1.75;;
25657;SDS011;13517;59.320;18.042;2022-08-01T00:33:35;7.88;;;1.92;;
25657;SDS011;13517;59.320;18.042;2022-08-01T00:36:00;6.13;;;1.70;;
25657;SDS011;13517;59.320;18.042;2022-08-01T00:38:25;3.47;;;1.95;;
25657;SDS011;13517;59.320;18.042;2022-08-01T00:40:51;2.95;;;2.05;;
25657;SDS011;13517;59.320;18.042;2022-08-01T00:43:16;4.80;;;2.20;;
25657;SDS011;13517;59.320;18.042;2022-08-01T00:45:41;4.63;;;2.20;;
25657;SDS011;13517;59.320;18.042;2022-08-01T00:48:07;1.90;;;1.80;;
25657;SDS011;13517;59.320;18.042;2022-08-01T00:50:32;7.13;;;2.25;;
25657;SDS011;13517;59.320;18.042;2022-08-01T00:52:59;4.53;;;2.00;;
25657;SDS011;13517;59.320;18.042;2022-08-01T00:55:24;3.65;;;2.00;;
25657;SDS011;13517;59.320;18.042;2022-08-01T00:57:51;2.60;;;2.13;;
25657;SDS011;13517;59.320;18.042;2022-08-01T01:00:17;4.93;;;2.08;;
25657;SDS011;13517;59.320;18.042;2022-08-01T01:02:42;4.05;;;2.38;;
25657;SDS011;13517;59.320;18.042;2022-08-01T01:05:08;5.90;;;2.45;;
25657;SDS011;13517;59.320;18.042;2022-08-01T01:07:43;4.65;;;2.00;;
25657;SDS011;13517;59.320;18.042;2022-08-01T01:10:21;6.35;;;2.42;;
25657;SDS011;13517;59.320;18.042;2022-08-01T01:13:04;4.68;;;1.98;;
25657;SDS011;13517;59.320;18.042;2022-08-01T01:15:40;4.57;;;2.20;;
25657;SDS011;13517;59.320;18.042;2022-08-01T01:20:39;4.72;;;2.05;;
25657;SDS011;13517;59.320;18.042;2022-08-01T01:26:01;3.88;;;2.58;;
25657;SDS011;13517;59.320;18.042;2022-08-01T01:28:52;5.38;;;2.20;;
25657;SDS011;13517;59.320;18.042;2022-08-01T01:31:42;2.97;;;2.30;;
25657;SDS011;13517;59.320;18.042;2022-08-01T01:34:15;3.53;;;2.25;;
25657;SDS011;13517;59.320;18.042;2022-08-01T01:36:43;5.57;;;2.20;;
25657;SDS011;13517;59.320;18.042;2022-08-01T01:39:11;5.57;;;2.20;;
25657;SDS011;13517;59.320;18.042;2022-08-01T01:41:39;5.05;;;2.30;;
25657;SDS011;13517;59.320;18.042;2022-08-01T01:44:05;2.70;;;2.45;;
25657;SDS011;13517;59.320;18.042;2022-08-01T01:46:33;6.10;;;1.95;;
25657;SDS011;13517;59.320;18.042;2022-08-01T01:49:00;8.27;;;2.75;;
25657;SDS011;13517;59.320;18.042;2022-08-01T01:51:27;2.80;;;1.85;;
25657;SDS011;13517;59.320;18.042;2022-08-01T01:53:54;3.00;;;2.03;;
25657;SDS011;13517;59.320;18.042;2022-08-01T01:56:21;5.32;;;2.30;;
25657;SDS011;13517;59.320;18.042;2022-08-01T01:58:57;2.83;;;1.95;;
25657;SDS011;13517;59.320;18.042;2022-08-01T02:01:26;3.00;;;2.35;;
25657;SDS011;13517;59.320;18.042;2022-08-01T02:03:53;4.80;;;2.00;;
25657;SDS011;13517;59.320;18.042;2022-08-01T02:06:21;4.50;;;2.58;;
25657;SDS011;13517;59.320;18.042;2022-08-01T02:08:48;3.15;;;2.20;;
25657;SDS011;13517;59.320;18.042;2022-08-01T02:11:15;5.30;;;2.30;;
25657;SDS011;13517;59.320;18.042;2022-08-01T02:13:43;2.05;;;1.85;;
25657;SDS011;13517;59.320;18.042;2022-08-01T02:16:13;2.50;;;2.13;;
25657;SDS011;13517;59.320;18.042;2022-08-01T02:18:40;3.25;;;1.75;;
25657;SDS011;13517;59.320;18.042;2022-08-01T02:21:08;3.95;;;2.03;;
25657;SDS011;13517;59.320;18.042;2022-08-01T02:23:37;5.03;;;1.83;;
25657;SDS011;13517;59.320;18.042;2022-08-01T02:26:07;6.22;;;2.17;;
25657;SDS011;13517;59.320;18.042;2022-08-01T02:28:36;2.55;;;2.10;;
25657;SDS011;13517;59.320;18.042;2022-08-01T02:31:09;4.90;;;1.65;;
25657;SDS011;13517;59.320;18.042;2022-08-01T02:33:40;3.75;;;2.00;;
25657;SDS011;13517;59.320;18.042;2022-08-01T02:36:08;7.07;;;2.60;;
25657;SDS011;13517;59.320;18.042;2022-08-01T02:38:37;4.18;;;2.25;;
25657;SDS011;13517;59.320;18.042;2022-08-01T02:41:07;2.00;;;1.80;;
25657;SDS011;13517;59.320;18.042;2022-08-01T02:43:36;3.88;;;2.17;;
25657;SDS011;13517;59.320;18.042;2022-08-01T02:46:04;4.60;;;2.00;;
25657;SDS011;13517;59.320;18.042;2022-08-01T02:48:33;7.03;;;2.22;;
25657;SDS011;13517;59.320;18.042;2022-08-01T02:51:03;4.78;;;1.92;;
25657;SDS011;13517;59.320;18.042;2022-08-01T02:53:32;4.07;;;1.60;;
25657;SDS011;13517;59.320;18.042;2022-08-01T02:56:02;2.20;;;1.63;;
25657;SDS011;13517;59.320;18.042;2022-08-01T02:58:29;2.17;;;1.85;;
25657;SDS011;13517;59.320;18.042;2022-08-01T03:00:55;2.67;;;1.73;;
25657;SDS011;13517;59.320;18.042;2022-08-01T03:03:22;1.58;;;1.48;;
25657;SDS011;13517;59.320;18.042;2022-08-01T03:05:49;2.47;;;1.80;;
25657;SDS011;13517;59.320;18.042;2022-08-01T03:08:15;3.33;;;1.83;;
25657;SDS011;13517;59.320;18.042;2022-08-01T03:10:43;2.78;;;1.80;;
25657;SDS011;13517;59.320;18.042;2022-08-01T03:13:10;4.50;;;1.90;;
25657;SDS011;13517;59.320;18.042;2022-08-01T03:15:38;4.45;;;1.60;;
25657;SDS011;13517;59.320;18.042;2022-08-01T03:18:05;5.15;;;1.77;;
25657;SDS011;13517;59.320;18.042;2022-08-01T03:20:32;1.73;;;1.40;;
25657;SDS011;13517;59.320;18.042;2022-08-01T03:22:59;2.63;;;1.45;;
25657;SDS011;13517;59.320;18.042;2022-08-01T03:25:28;2.33;;;1.50;;
25657;SDS011;13517;59.320;18.042;2022-08-01T03:27:55;4.15;;;1.77;;
25657;SDS011;13517;59.320;18.042;2022-08-01T03:30:23;2.33;;;1.30;;
25657;SDS011;13517;59.320;18.042;2022-08-01T03:32:51;2.58;;;1.63;;
25657;SDS011;13517;59.320;18.042;2022-08-01T03:35:16;2.22;;;1.40;;
25657;SDS011;13517;59.320;18.042;2022-08-01T03:37:44;6.90;;;1.75;;
25657;SDS011;13517;59.320;18.042;2022-08-01T03:40:58;5.13;;;1.83;;
25657;SDS011;13517;59.320;18.042;2022-08-01T03:43:15;2.97;;;1.60;;
25657;SDS011;13517;59.320;18.042;2022-08-01T03:45:46;4.03;;;1.73;;
25657;SDS011;13517;59.320;18.042;2022-08-01T03:48:18;2.28;;;1.42;;
25657;SDS011;13517;59.320;18.042;2022-08-01T03:50:48;4.15;;;1.80;;
25657;SDS011;13517;59.320;18.042;2022-08-01T03:53:16;3.63;;;2.08;;
25657;SDS011;13517;59.320;18.042;2022-08-01T03:55:48;2.55;;;1.70;;
25657;SDS011;13517;59.320;18.042;2022-08-01T03:58:14;3.20;;;1.92;;
25657;SDS011;13517;59.320;18.042;2022-08-01T04:00:40;4.93;;;1.70;;
25657;SDS011;13517;59.320;18.042;2022-08-01T04:03:07;4.20;;;1.90;;
25657;SDS011;13517;59.320;18.042;2022-08-01T04:05:33;3.72;;;1.92;;
25657;SDS011;13517;59.320;18.042;2022-08-01T04:08:00;2.60;;;1.75;;
25657;SDS011;13517;59.320;18.042;2022-08-01T04:10:27;6.25;;;1.83;;
25657;SDS011;13517;59.320;18.042;2022-08-01T04:12:52;3.03;;;1.80;;
25657;SDS011;13517;59.320;18.042;2022-08-01T04:15:18;4.05;;;1.90;;
25657;SDS011;13517;59.320;18.042;2022-08-01T04:17:45;3.35;;;1.85;;
25657;SDS011;13517;59.320;18.042;2022-08-01T04:20:10;5.38;;;1.77;;
25657;SDS011;13517;59.320;18.042;2022-08-01T04:22:37;6.60;;;1.92;;
25657;SDS011;13517;59.320;18.042;2022-08-01T04:25:03;7.03;;;2.20;;
25657;SDS011;13517;59.320;18.042;2022-08-01T04:27:35;5.47;;;1.67;;
25657;SDS011;13517;59.320;18.042;2022-08-01T04:30:03;3.90;;;1.80;;
25657;SDS011;13517;59.320;18.042;2022-08-01T04:32:31;2.95;;;1.58;;
25657;SDS011;13517;59.320;18.042;2022-08-01T04:34:59;8.02;;;1.83;;
25657;SDS011;13517;59.320;18.042;2022-08-01T04:37:29;3.28;;;1.65;;
25657;SDS011;13517;59.320;18.042;2022-08-01T04:39:55;10.20;;;1.70;;
25657;SDS011;13517;59.320;18.042;2022-08-01T04:42:22;2.83;;;1.70;;
25657;SDS011;13517;59.320;18.042;2022-08-01T04:44:47;7.47;;;1.90;;
25657;SDS011;13517;59.320;18.042;2022-08-01T04:47:13;3.10;;;1.80;;
25657;SDS011;13517;59.320;18.042;2022-08-01T04:49:39;4.15;;;2.05;;
25657;SDS011;13517;59.320;18.042;2022-08-01T04:52:05;2.67;;;1.70;;
25657;SDS011;13517;59.320;18.042;2022-08-01T04:54:32;2.78;;;1.55;;
25657;SDS011;13517;59.320;18.042;2022-08-01T04:57:02;4.13;;;1.50;;
25657;SDS011;13517;59.320;18.042;2022-08-01T04:59:31;3.72;;;1.50;;
25657;SDS011;13517;59.320;18.042;2022-08-01T05:02:07;2.17;;;1.75;;
25657;SDS011;13517;59.320;18.042;2022-08-01T05:04:40;2.55;;;1.58;;
25657;SDS011;13517;59.320;18.042;2022-08-01T05:07:06;4.78;;;1.60;;
25657;SDS011;13517;59.320;18.042;2022-08-01T05:09:32;4.88;;;1.58;;
25657;SDS011;13517;59.320;18.042;2022-08-01T05:11:59;6.28;;;1.60;;
25657;SDS011;13517;59.320;18.042;2022-08-01T05:14:26;3.97;;;1.45;;
25657;SDS011;13517;59.320;18.042;2022-08-01T05:16:52;2.83;;;1.58;;
25657;SDS011;13517;59.320;18.042;2022-08-01T05:19:18;4.22;;;1.42;;
25657;SDS011;13517;59.320;18.042;2022-08-01T05:21:43;2.40;;;1.27;;
25657;SDS011;13517;59.320;18.042;2022-08-01T05:24:08;5.13;;;1.63;;
25657;SDS011;13517;59.320;18.042;2022-08-01T05:26:33;2.75;;;1.67;;
25657;SDS011;13517;59.320;18.042;2022-08-01T05:28:59;4.60;;;1.80;;
25657;SDS011;13517;59.320;18.042;2022-08-01T05:31:25;2.13;;;1.48;;
25657;SDS011;13517;59.320;18.042;2022-08-01T05:33:50;2.55;;;1.48;;
25657;SDS011;13517;59.320;18.042;2022-08-01T05:36:15;1.95;;;1.50;;
25657;SDS011;13517;59.320;18.042;2022-08-01T05:38:40;1.77;;;1.48;;
25657;SDS011;13517;59.320;18.042;2022-08-01T05:41:06;2.10;;;1.38;;
25657;SDS011;13517;59.320;18.042;2022-08-01T05:43:31;4.05;;;1.40;;
25657;SDS011;13517;59.320;18.042;2022-08-01T05:45:56;2.88;;;1.33;;
25657;SDS011;13517;59.320;18.042;2022-08-01T05:48:23;4.05;;;1.65;;
25657;SDS011;13517;59.320;18.042;2022-08-01T05:50:48;3.10;;;1.42;;
25657;SDS011;13517;59.320;18.042;2022-08-01T05:53:14;2.80;;;1.80;;
25657;SDS011;13517;59.320;18.042;2022-08-01T05:55:39;2.65;;;1.20;;
25657;SDS011;13517;59.320;18.042;2022-08-01T05:58:05;3.70;;;1.50;;
25657;SDS011;13517;59.320;18.042;2022-08-01T06:00:30;2.67;;;1.55;;
25657;SDS011;13517;59.320;18.042;2022-08-01T06:02:56;2.35;;;1.88;;
25657;SDS011;13517;59.320;18.042;2022-08-01T06:05:21;3.88;;;1.70;;
25657;SDS011;13517;59.320;18.042;2022-08-01T06:07:46;13.82;;;2.10;;
25657;SDS011;13517;59.320;18.042;2022-08-01T06:10:11;3.23;;;1.60;;
25657;SDS011;13517;59.320;18.042;2022-08-01T06:12:37;2.67;;;1.50;;
25657;SDS011;13517;59.320;18.042;2022-08-01T06:15:03;4.22;;;1.60;;
25657;SDS011;13517;59.320;18.042;2022-08-01T06:17:29;4.57;;;1.50;;
25657;SDS011;13517;59.320;18.042;2022-08-01T06:19:55;5.65;;;1.50;;
25657;SDS011;13517;59.320;18.042;2022-08-01T06:22:20;2.17;;;1.50;;
25657;SDS011;13517;59.320;18.042;2022-08-01T06:24:46;5.07;;;1.27;;
25657;SDS011;13517;59.320;18.042;2022-08-01T06:27:11;2.50;;;1.40;;
25657;SDS011;13517;59.320;18.042;2022-08-01T06:29:36;2.83;;;1.20;;
25657;SDS011;13517;59.320;18.042;2022-08-01T06:32:02;4.57;;;1.50;;
25657;SDS011;13517;59.320;18.042;2022-08-01T06:34:27;3.92;;;1.60;;
25657;SDS011;13517;59.320;18.042;2022-08-01T06:36:52;1.80;;;1.30;;
25657;SDS011;13517;59.320;18.042;2022-08-01T06:39:18;3.28;;;1.50;;
25657;SDS011;13517;59.320;18.042;2022-08-01T06:41:43;1.50;;;1.30;;
25657;SDS011;13517;59.320;18.042;2022-08-01T06:44:11;2.83;;;1.40;;
25657;SDS011;13517;59.320;18.042;2022-08-01T06:46:37;1.77;;;1.10;;
25657;SDS011;13517;59.320;18.042;2022-08-01T06:49:02;1.35;;;1.20;;
25657;SDS011;13517;59.320;18.042;2022-08-01T06:51:27;1.77;;;1.40;;
25657;SDS011;13517;59.320;18.042;2022-08-01T06:53:52;4.80;;;1.47;;
25657;SDS011;13517;59.320;18.042;2022-08-01T06:56:18;4.35;;;1.75;;
25657;SDS011;13517;59.320;18.042;2022-08-01T06:58:45;3.17;;;1.40;;
25657;SDS011;13517;59.320;18.042;2022-08-01T07:01:10;3.90;;;1.20;;
25657;SDS011;13517;59.320;18.042;2022-08-01T07:03:36;3.67;;;1.30;;
25657;SDS011;13517;59.320;18.042;2022-08-01T07:06:01;4.20;;;1.27;;
25657;SDS011;13517;59.320;18.042;2022-08-01T07:08:28;4.07;;;1.30;;
25657;SDS011;13517;59.320;18.042;2022-08-01T07:10:53;2.90;;;1.50;;
25657;SDS011;13517;59.320;18.042;2022-08-01T07:13:18;1.48;;;1.20;;
25657;SDS011;13517;59.320;18.042;2022-08-01T07:15:46;3.15;;;1.30;;
25657;SDS011;13517;59.320;18.042;2022-08-01T07:18:12;1.80;;;1.13;;
25657;SDS011;13517;59.320;18.042;2022-08-01T07:20:37;2.27;;;1.23;;
25657;SDS011;13517;59.320;18.042;2022-08-01T07:23:03;1.35;;;1.20;;
25657;SDS011;13517;59.320;18.042;2022-08-01T07:25:28;4.20;;;1.65;;
25657;SDS011;13517;59.320;18.042;2022-08-01T07:27:54;12.52;;;1.80;;
25657;SDS011;13517;59.320;18.042;2022-08-01T07:30:19;5.88;;;1.55;;
25657;SDS011;13517;59.320;18.042;2022-08-01T07:32:44;15.10;;;2.33;;
25657;SDS011;13517;59.320;18.042;2022-08-01T07:35:10;6.93;;;1.77;;
25657;SDS011;13517;59.320;18.042;2022-08-01T07:37:35;3.83;;;1.23;;
25657;SDS011;13517;59.320;18.042;2022-08-01T07:40:00;3.47;;;1.30;;
25657;SDS011;13517;59.320;18.042;2022-08-01T07:42:26;3.50;;;1.23;;
25657;SDS011;13517;59.320;18.042;2022-08-01T07:44:51;1.30;;;1.20;;
25657;SDS011;13517;59.320;18.042;2022-08-01T07:47:22;4.63;;;1.20;;
25657;SDS011;13517;59.320;18.042;2022-08-01T07:49:49;7.15;;;1.35;;
25657;SDS011;13517;59.320;18.042;2022-08-01T07:52:14;1.73;;;1.23;;
25657;SDS011;13517;59.320;18.042;2022-08-01T07:54:39;3.28;;;1.10;;
25657;SDS011;13517;59.320;18.042;2022-08-01T07:57:05;7.28;;;1.70;;
25657;SDS011;13517;59.320;18.042;2022-08-01T07:59:30;2.67;;;1.50;;
25657;SDS011;13517;59.320;18.042;2022-08-01T08:01:56;5.10;;;1.40;;
25657;SDS011;13517;59.320;18.042;2022-08-01T08:04:21;7.75;;;1.45;;
25657;SDS011;13517;59.320;18.042;2022-08-01T08:06:46;2.28;;;1.20;;
25657;SDS011;13517;59.320;18.042;2022-08-01T08:09:12;2.75;;;1.33;;
25657;SDS011;13517;59.320;18.042;2022-08-01T08:11:38;2.00;;;1.20;;
25657;SDS011;13517;59.320;18.042;2022-08-01T08:14:03;2.47;;;1.30;;
25657;SDS011;13517;59.320;18.042;2022-08-01T08:16:29;2.20;;;1.42;;
25657;SDS011;13517;59.320;18.042;2022-08-01T08:18:54;2.55;;;1.40;;
25657;SDS011;13517;59.320;18.042;2022-08-01T08:21:19;4.22;;;1.50;;
25657;SDS011;13517;59.320;18.042;2022-08-01T08:23:44;2.33;;;1.02;;
25657;SDS011;13517;59.320;18.042;2022-08-01T08:26:28;4.22;;;1.58;;
25657;SDS011;13517;59.320;18.042;2022-08-01T08:28:54;2.38;;;1.13;;
25657;SDS011;13517;59.320;18.042;2022-08-01T08:31:19;1.63;;;1.37;;
25657;SDS011;13517;59.320;18.042;2022-08-01T08:33:44;5.47;;;1.50;;
25657;SDS011;13517;59.320;18.042;2022-08-01T08:36:09;1.97;;;1.03;;
25657;SDS011;13517;59.320;18.042;2022-08-01T08:38:36;2.50;;;1.45;;
25657;SDS011;13517;59.320;18.042;2022-08-01T08:41:01;2.80;;;1.83;;
25657;SDS011;13517;59.320;18.042;2022-08-01T08:43:27;2.55;;;1.27;;
25657;SDS011;13517;59.320;18.042;2022-08-01T08:45:52;3.85;;;1.10;;
25657;SDS011;13517;59.320;18.042;2022-08-01T08:48:18;1.00;;;1.00;;
25657;SDS011;13517;59.320;18.042;2022-08-01T08:50:44;2.78;;;1.02;;
25657;SDS011;13517;59.320;18.042;2022-08-01T08:53:11;3.67;;;1.00;;
25657;SDS011;13517;59.320;18.042;2022-08-01T08:55:39;1.75;;;1.20;;
25657;SDS011;13517;59.320;18.042;2022-08-01T08:58:08;2.08;;;1.40;;
25657;SDS011;13517;59.320;18.042;2022-08-01T09:00:38;2.03;;;1.20;;
25657;SDS011;13517;59.320;18.042;2022-08-01T09:03:04;3.40;;;1.20;;
25657;SDS011;13517;59.320;18.042;2022-08-01T09:05:29;1.90;;;1.25;;
25657;SDS011;13517;59.320;18.042;2022-08-01T09:07:55;5.20;;;1.17;;
25657;SDS011;13517;59.320;18.042;2022-08-01T09:10:20;2.13;;;1.25;;
25657;SDS011;13517;59.320;18.042;2022-08-01T09:15:37;3.90;;;1.23;;
25657;SDS011;13517;59.320;18.042;2022-08-01T09:18:07;1.33;;;1.02;;
25657;SDS011;13517;59.320;18.042;2022-08-01T09:20:33;2.83;;;1.40;;
25657;SDS011;13517;59.320;18.042;2022-08-01T09:23:02;4.82;;;1.70;;
25657;SDS011;13517;59.320;18.042;2022-08-01T09:25:28;3.45;;;1.40;;
25657;SDS011;13517;59.320;18.042;2022-08-01T09:28:03;2.33;;;1.38;;
25657;SDS011;13517;59.320;18.042;2022-08-01T09:30:30;1.48;;;1.30;;
25657;SDS011;13517;59.320;18.042;2022-08-01T09:33:03;2.92;;;1.30;;
25657;SDS011;13517;59.320;18.042;2022-08-01T09:35:30;2.13;;;1.40;;
25657;SDS011;13517;59.320;18.042;2022-08-01T09:38:17;7.28;;;1.70;;
25657;SDS011;13517;59.320;18.042;2022-08-01T09:40:47;1.52;;;1.20;;
25657;SDS011;13517;59.320;18.042;2022-08-01T09:43:17;3.05;;;1.40;;
25657;SDS011;13517;59.320;18.042;2022-08-01T09:45:43;2.22;;;1.15;;
25657;SDS011;13517;59.320;18.042;2022-08-01T09:48:09;5.05;;;1.60;;
25657;SDS011;13517;59.320;18.042;2022-08-01T09:50:41;1.95;;;1.38;;
25657;SDS011;13517;59.320;18.042;2022-08-01T09:53:11;1.58;;;1.10;;
25657;SDS011;13517;59.320;18.042;2022-08-01T09:55:38;1.42;;;1.20;;
25657;SDS011;13517;59.320;18.042;2022-08-01T09:58:04;4.28;;;1.30;;
25657;SDS011;13517;59.320;18.042;2022-08-01T10:00:31;4.60;;;1.67;;
25657;SDS011;13517;59.320;18.042;2022-08-01T10:02:58;4.45;;;1.33;;
25657;SDS011;13517;59.320;18.042;2022-08-01T10:05:34;4.72;;;1.75;;
25657;SDS011;13517;59.320;18.042;2022-08-01T10:08:01;2.70;;;1.40;;
25657;SDS011;13517;59.320;18.042;2022-08-01T10:10:29;1.48;;;1.33;;
25657;SDS011;13517;59.320;18.042;2022-08-01T10:12:55;2.78;;;1.13;;
25657;SDS011;13517;59.320;18.042;2022-08-01T10:15:21;3.83;;;1.05;;
25657;SDS011;13517;59.320;18.042;2022-08-01T10:17:53;3.05;;;1.08;;
25657;SDS011;13517;59.320;18.042;2022-08-01T10:20:20;3.20;;;1.10;;
25657;SDS011;13517;59.320;18.042;2022-08-01T10:22:48;5.32;;;1.40;;
25657;SDS011;13517;59.320;18.042;2022-08-01T10:25:16;2.28;;;1.20;;
25657;SDS011;13517;59.320;18.042;2022-08-01T10:27:44;1.38;;;1.15;;
25657;SDS011;13517;59.320;18.042;2022-08-01T10:30:13;4.57;;;1.60;;
25657;SDS011;13517;59.320;18.042;2022-08-01T10:32:39;2.25;;;1.33;;
25657;SDS011;13517;59.320;18.042;2022-08-01T10:35:07;1.20;;;1.10;;
25657;SDS011;13517;59.320;18.042;2022-08-01T10:37:34;1.92;;;1.25;;
25657;SDS011;13517;59.320;18.042;2022-08-01T10:40:00;7.28;;;1.20;;
25657;SDS011;13517;59.320;18.042;2022-08-01T10:42:27;2.58;;;1.08;;
25657;SDS011;13517;59.320;18.042;2022-08-01T10:44:53;4.60;;;1.27;;
25657;SDS011;13517;59.320;18.042;2022-08-01T10:47:29;1.75;;;1.17;;
25657;SDS011;13517;59.320;18.042;2022-08-01T10:52:29;2.40;;;1.00;;
25657;SDS011;13517;59.320;18.042;2022-08-01T10:55:03;3.40;;;1.55;;
25657;SDS011;13517;59.320;18.042;2022-08-01T10:57:45;1.83;;;1.20;;
25657;SDS011;13517;59.320;18.042;2022-08-01T11:00:18;3.08;;;1.10;;
25657;SDS011;13517;59.320;18.042;2022-08-01T11:03:01;2.25;;;1.48;;
25657;SDS011;13517;59.320;18.042;2022-08-01T11:05:30;2.55;;;1.30;;
25657;SDS011;13517;59.320;18.042;2022-08-01T11:07:58;4.18;;;1.52;;
25657;SDS011;13517;59.320;18.042;2022-08-01T11:13:02;1.35;;;1.00;;
25657;SDS011;13517;59.320;18.042;2022-08-01T11:15:30;3.95;;;1.20;;
25657;SDS011;13517;59.320;18.042;2022-08-01T11:17:56;1.83;;;1.10;;
25657;SDS011;13517;59.320;18.042;2022-08-01T11:20:26;3.05;;;1.20;;
25657;SDS011;13517;59.320;18.042;2022-08-01T11:30:51;2.42;;;1.35;;
25657;SDS011;13517;59.320;18.042;2022-08-01T11:33:47;1.35;;;1.25;;
25657;SDS011;13517;59.320;18.042;2022-08-01T11:38:40;2.55;;;1.30;;
25657;SDS011;13517;59.320;18.042;2022-08-01T11:41:20;1.73;;;1.27;;
25657;SDS011;13517;59.320;18.042;2022-08-01T11:52:08;7.10;;;1.88;;
25657;SDS011;13517;59.320;18.042;2022-08-01T11:57:18;1.20;;;1.10;;
25657;SDS011;13517;59.320;18.042;2022-08-01T11:59:49;2.53;;;1.27;;
25657;SDS011;13517;59.320;18.042;2022-08-01T12:05:02;2.25;;;1.20;;
25657;SDS011;13517;59.320;18.042;2022-08-01T12:07:33;4.10;;;1.75;;
25657;SDS011;13517;59.320;18.042;2022-08-01T12:12:44;1.75;;;1.27;;
25657;SDS011;13517;59.320;18.042;2022-08-01T12:15:14;2.13;;;1.33;;
25657;SDS011;13517;59.320;18.042;2022-08-01T12:17:41;4.78;;;1.92;;
25657;SDS011;13517;59.320;18.042;2022-08-01T12:20:09;5.32;;;1.45;;
25657;SDS011;13517;59.320;18.042;2022-08-01T12:22:37;9.18;;;1.67;;
25657;SDS011;13517;59.320;18.042;2022-08-01T12:27:42;3.78;;;1.85;;
25657;SDS011;13517;59.320;18.042;2022-08-01T12:30:10;4.03;;;1.30;;
25657;SDS011;13517;59.320;18.042;2022-08-01T12:32:37;3.33;;;1.20;;
25657;SDS011;13517;59.320;18.042;2022-08-01T12:37:30;2.20;;;1.30;;
25657;SDS011;13517;59.320;18.042;2022-08-01T12:39:56;2.08;;;1.27;;
25657;SDS011;13517;59.320;18.042;2022-08-01T12:42:22;4.32;;;1.35;;
25657;SDS011;13517;59.320;18.042;2022-08-01T12:44:50;3.20;;;1.30;;
25657;SDS011;13517;59.320;18.042;2022-08-01T12:47:17;5.72;;;1.30;;
25657;SDS011;13517;59.320;18.042;2022-08-01T12:49:45;2.33;;;1.40;;
25657;SDS011;13517;59.320;18.042;2022-08-01T12:52:12;4.93;;;1.42;;
25657;SDS011;13517;59.320;18.042;2022-08-01T12:57:49;2.20;;;1.20;;
25657;SDS011;13517;59.320;18.042;2022-08-01T13:00:27;3.65;;;1.40;;
25657;SDS011;13517;59.320;18.042;2022-08-01T13:03:11;2.65;;;1.20;;
25657;SDS011;13517;59.320;18.042;2022-08-01T13:08:08;2.17;;;1.20;;
25657;SDS011;13517;59.320;18.042;2022-08-01T13:10:35;2.75;;;1.08;;
25657;SDS011;13517;59.320;18.042;2022-08-01T13:13:00;4.57;;;1.33;;
25657;SDS011;13517;59.320;18.042;2022-08-01T13:15:27;3.97;;;1.30;;
25657;SDS011;13517;59.320;18.042;2022-08-01T13:17:59;1.48;;;1.00;;
25657;SDS011;13517;59.320;18.042;2022-08-01T13:20:32;2.55;;;1.33;;
25657;SDS011;13517;59.320;18.042;2022-08-01T13:23:12;1.80;;;1.08;;
25657;SDS011;13517;59.320;18.042;2022-08-01T13:25:48;2.85;;;1.15;;
25657;SDS011;13517;59.320;18.042;2022-08-01T13:28:22;6.40;;;1.10;;
25657;SDS011;13517;59.320;18.042;2022-08-01T13:30:59;4.70;;;1.30;;
25657;SDS011;13517;59.320;18.042;2022-08-01T13:33:45;4.87;;;1.50;;
25657;SDS011;13517;59.320;18.042;2022-08-01T13:36:12;3.78;;;1.27;;
25657;SDS011;13517;59.320;18.042;2022-08-01T13:38:39;2.17;;;1.30;;
25657;SDS011;13517;59.320;18.042;2022-08-01T13:41:23;3.00;;;1.00;;
25657;SDS011;13517;59.320;18.042;2022-08-01T13:43:49;3.25;;;1.10;;
25657;SDS011;13517;59.320;18.042;2022-08-01T13:46:14;1.73;;;1.00;;
25657;SDS011;13517;59.320;18.042;2022-08-01T13:48:40;1.67;;;1.10;;
25657;SDS011;13517;59.320;18.042;2022-08-01T13:51:05;5.37;;;1.20;;
25657;SDS011;13517;59.320;18.042;2022-08-01T13:53:30;2.65;;;1.40;;
25657;SDS011;13517;59.320;18.042;2022-08-01T13:55:56;3.03;;;1.30;;
25657;SDS011;13517;59.320;18.042;2022-08-01T13:58:21;2.92;;;1.20;;
25657;SDS011;13517;59.320;18.042;2022-08-01T14:00:46;3.13;;;1.08;;
25657;SDS011;13517;59.320;18.042;2022-08-01T14:03:12;1.50;;;1.25;;
25657;SDS011;13517;59.320;18.042;2022-08-01T14:05:38;2.03;;;1.25;;
25657;SDS011;13517;59.320;18.042;2022-08-01T14:08:04;4.05;;;1.10;;
25657;SDS011;13517;59.320;18.042;2022-08-01T14:10:30;1.58;;;1.10;;
25657;SDS011;13517;59.320;18.042;2022-08-01T14:12:56;2.80;;;1.08;;
25657;SDS011;13517;59.320;18.042;2022-08-01T14:15:23;4.03;;;1.02;;
25657;SDS011;13517;59.320;18.042;2022-08-01T14:17:48;2.47;;;0.95;;
25657;SDS011;13517;59.320;18.042;2022-08-01T14:20:14;1.35;;;1.10;;
25657;SDS011;13517;59.320;18.042;2022-08-01T14:22:39;1.00;;;0.90;;
25657;SDS011;13517;59.320;18.042;2022-08-01T14:25:05;1.73;;;0.90;;
25657;SDS011;13517;59.320;18.042;2022-08-01T14:27:31;1.00;;;0.90;;
25657;SDS011;13517;59.320;18.042;2022-08-01T14:30:00;2.80;;;0.90;;
25657;SDS011;13517;59.320;18.042;2022-08-01T14:32:26;0.95;;;0.77;;
25657;SDS011;13517;59.320;18.042;2022-08-01T14:34:51;1.77;;;0.90;;
25657;SDS011;13517;59.320;18.042;2022-08-01T14:37:17;2.00;;;1.10;;
25657;SDS011;13517;59.320;18.042;2022-08-01T14:39:42;2.70;;;1.50;;
25657;SDS011;13517;59.320;18.042;2022-08-01T14:42:07;1.60;;;1.20;;
25657;SDS011;13517;59.320;18.042;2022-08-01T14:44:33;1.20;;;1.10;;
25657;SDS011;13517;59.320;18.042;2022-08-01T14:46:58;2.97;;;1.30;;
25657;SDS011;13517;59.320;18.042;2022-08-01T14:49:23;1.85;;;1.00;;
25657;SDS011;13517;59.320;18.042;2022-08-01T14:51:48;2.37;;;1.00;;
25657;SDS011;13517;59.320;18.042;2022-08-01T14:54:14;1.52;;;1.13;;
25657;SDS011;13517;59.320;18.042;2022-08-01T14:56:39;2.60;;;2.17;;
25657;SDS011;13517;59.320;18.042;2022-08-01T14:59:04;1.67;;;0.90;;
25657;SDS011;13517;59.320;18.042;2022-08-01T15:01:29;1.90;;;1.27;;
25657;SDS011;13517;59.320;18.042;2022-08-01T15:03:55;2.23;;;1.30;;
25657;SDS011;13517;59.320;18.042;2022-08-01T15:06:20;5.65;;;1.30;;
25657;SDS011;13517;59.320;18.042;2022-08-01T15:08:46;5.63;;;1.63;;
25657;SDS011;13517;59.320;18.042;2022-08-01T15:11:11;3.75;;;1.67;;
25657;SDS011;13517;59.320;18.042;2022-08-01T15:13:36;3.00;;;1.10;;
25657;SDS011;13517;59.320;18.042;2022-08-01T15:16:02;5.15;;;1.23;;
25657;SDS011;13517;59.320;18.042;2022-08-01T15:18:28;2.65;;;1.40;;
25657;SDS011;13517;59.320;18.042;2022-08-01T15:20:53;1.80;;;1.52;;
25657;SDS011;13517;59.320;18.042;2022-08-01T15:23:19;2.92;;;1.25;;
25657;SDS011;13517;59.320;18.042;2022-08-01T15:25:45;1.92;;;0.90;;
25657;SDS011;13517;59.320;18.042;2022-08-01T15:28:11;1.80;;;1.00;;